Time;durP1;ratioP1;P1;durP2;ratioP2;P2;SDS_P1;SDS_P2;PMS_P1;PMS_P2;Temp;Humidity;BMP_temperature;BMP_pressure;BME280_temperature;BME280_humidity;BME280_pressure;Samples;Min_cycle;Max_cycle;Signal;HPM_P1;HPM_P2
2021/03/06 00:00:57;;;;;;;8.03;2.67;;;;;;;;;;5070856;28;20392;-68
2021/03/06 00:03:26;;;;;;;5.53;2.70;;;;;;;;;;5068316;28;20040;-68
2021/03/06 00:05:53;;;;;;;7.35;2.08;;;;;;;;;;5065954;28;20043;-68
2021/03/06 00:08:23;;;;;;;7.40;2.05;;;;;;;;;;5069719;28;20049;-68
2021/03/06 00:10:54;;;;;;;10.57;3.00;;;;;;;;;;5069265;28;20098;-69
2021/03/06 00:13:22;;;;;;;5.43;2.93;;;;;;;;;;5069479;28;20097;-68
2021/03/06 00:15:48;;;;;;;6.43;2.08;;;;;;;;;;5069861;28;20071;-68
2021/03/06 00:18:15;;;;;;;10.87;2.27;;;;;;;;;;5069638;28;20063;-68
2021/03/06 00:20:41;;;;;;;12.57;3.00;;;;;;;;;;5069950;28;20410;-68
2021/03/06 00:23:10;;;;;;;11.13;2.90;;;;;;;;;;5069415;28;20095;-68
2021/03/06 00:25:36;;;;;;;8.83;3.83;;;;;;;;;;5067801;28;20143;-68
2021/03/06 00:28:02;;;;;;;8.47;3.00;;;;;;;;;;5067474;28;20037;-68
2021/03/06 00:30:30;;;;;;;9.43;3.00;;;;;;;;;;5064903;28;20102;-68
2021/03/06 00:32:56;;;;;;;7.27;3.00;;;;;;;;;;5068404;28;20068;-68
2021/03/06 00:35:22;;;;;;;7.07;3.40;;;;;;;;;;5068721;28;20043;-68
2021/03/06 00:37:48;;;;;;;9.53;3.13;;;;;;;;;;5069013;28;20382;-68
2021/03/06 00:40:15;;;;;;;8.23;2.87;;;;;;;;;;5070329;28;20044;-68
2021/03/06 00:42:42;;;;;;;9.27;3.07;;;;;;;;;;5070051;28;20036;-68
2021/03/06 00:45:08;;;;;;;;;;;;;;;;;;5069264;28;20048;-68
2021/03/06 00:47:35;;;;;;;14.63;2.83;;;;;;;;;;5067379;28;19925;-68
2021/03/06 00:50:06;;;;;;;11.53;3.30;;;;;;;;;;5069382;28;20047;-68
2021/03/06 00:52:32;;;;;;;11.87;2.90;;;;;;;;;;5069184;28;20126;-68
2021/03/06 00:54:58;;;;;;;8.73;3.40;;;;;;;;;;5064813;28;20058;-68
2021/03/06 00:57:25;;;;;;;3.93;2.23;;;;;;;;;;5067090;28;20040;-68
2021/03/06 00:59:52;;;;;;;10.00;2.75;;;;;;;;;;5069510;28;20278;-67
2021/03/06 01:02:19;;;;;;;8.90;2.90;;;;;;;;;;5069171;28;20492;-68
2021/03/06 01:04:48;;;;;;;7.70;3.13;;;;;;;;;;5083412;28;20048;-68
2021/03/06 01:07:15;;;;;;;8.17;3.10;;;;;;;;;;5068972;28;20048;-68
2021/03/06 01:09:41;;;;;;;9.18;3.22;;;;;;;;;;5071084;28;20052;-68
2021/03/06 01:12:08;;;;;;;9.55;3.53;;;;;;;;;;5068388;28;20145;-68
2021/03/06 01:14:34;;;;;;;10.77;3.13;;;;;;;;;;5069340;28;20048;-68
2021/03/06 01:17:01;;;;;;;7.60;3.30;;;;;;;;;;5067991;28;20044;-68
2021/03/06 01:19:27;;;;;;;8.65;3.13;;;;;;;;;;5067096;28;20037;-68
2021/03/06 01:21:53;;;;;;;8.90;2.97;;;;;;;;;;5068185;28;20047;-68
2021/03/06 01:24:33;;;;;;;6.13;2.80;;;;;;;;;;5067963;28;20131;-68
2021/03/06 01:27:00;;;;;;;13.43;3.27;;;;;;;;;;5065611;28;20059;-68
2021/03/06 01:29:27;;;;;;;11.73;3.23;;;;;;;;;;5069176;28;20703;-68
2021/03/06 01:31:53;;;;;;;10.10;3.30;;;;;;;;;;5066196;28;20044;-68
2021/03/06 01:34:20;;;;;;;11.00;2.70;;;;;;;;;;5067618;28;20151;-68
2021/03/06 01:36:46;;;;;;;12.20;3.60;;;;;;;;;;5068191;28;20044;-68
2021/03/06 01:39:13;;;;;;;9.68;2.70;;;;;;;;;;5067366;28;20045;-68
2021/03/06 01:41:39;;;;;;;5.77;2.83;;;;;;;;;;5068241;28;20558;-68
2021/03/06 01:44:05;;;;;;;13.43;2.97;;;;;;;;;;5066426;28;20598;-68
2021/03/06 01:46:32;;;;;;;12.13;3.67;;;;;;;;;;5067803;28;20127;-68
2021/03/06 01:48:58;;;;;;;12.37;3.30;;;;;;;;;;5066749;28;20514;-68
2021/03/06 01:51:25;;;;;;;13.32;2.65;;;;;;;;;;5067720;28;20553;-68
2021/03/06 01:53:52;;;;;;;9.15;2.83;;;;;;;;;;5065710;28;20062;-68
2021/03/06 01:56:18;;;;;;;18.33;4.10;;;;;;;;;;5064238;28;20060;-68
2021/03/06 01:58:47;;;;;;;15.43;3.60;;;;;;;;;;5066570;28;20044;-68
2021/03/06 02:01:13;;;;;;;12.43;3.40;;;;;;;;;;5065667;28;20521;-68
2021/03/06 02:03:39;;;;;;;11.30;3.50;;;;;;;;;;5065643;28;20491;-68
2021/03/06 02:06:06;;;;;;;8.57;3.43;;;;;;;;;;5065013;28;20070;-68
2021/03/06 02:08:32;;;;;;;15.80;3.55;;;;;;;;;;5065503;28;20032;-68
2021/03/06 02:10:58;;;;;;;12.93;4.10;;;;;;;;;;5067428;28;20047;-68
2021/03/06 02:13:34;;;;;;;11.77;3.50;;;;;;;;;;5067898;28;20059;-68
2021/03/06 02:16:08;;;;;;;13.30;3.30;;;;;;;;;;5065773;28;20040;-68
2021/03/06 02:18:39;;;;;;;10.07;3.17;;;;;;;;;;5065478;28;20109;-68
2021/03/06 02:21:10;;;;;;;15.70;3.53;;;;;;;;;;5067061;28;20037;-68
2021/03/06 02:23:55;;;;;;;18.17;3.63;;;;;;;;;;5068571;28;20496;-68
2021/03/06 02:26:40;;;;;;;5.27;3.20;;;;;;;;;;5067598;28;20036;-68
2021/03/06 02:29:25;;;;;;;14.37;4.00;;;;;;;;;;5067453;28;20044;-66
2021/03/06 02:31:53;;;;;;;13.27;3.83;;;;;;;;;;5069332;28;20048;-68
2021/03/06 02:34:24;;;;;;;18.27;4.17;;;;;;;;;;5068623;28;20041;-68
2021/03/06 02:36:54;;;;;;;15.57;3.80;;;;;;;;;;5068391;28;20044;-68
2021/03/06 02:39:22;;;;;;;15.30;3.80;;;;;;;;;;5076289;28;20045;-68
2021/03/06 02:41:48;;;;;;;13.02;3.67;;;;;;;;;;5068948;28;20094;-68
2021/03/06 02:44:15;;;;;;;14.35;3.53;;;;;;;;;;5069265;28;20045;-68
2021/03/06 02:46:42;;;;;;;20.95;5.05;;;;;;;;;;5067017;28;20036;-68
2021/03/06 02:49:08;;;;;;;16.30;4.60;;;;;;;;;;5068784;28;20064;-68
2021/03/06 02:51:36;;;;;;;16.10;4.43;;;;;;;;;;5068997;28;20515;-68
2021/03/06 02:54:03;;;;;;;13.90;4.50;;;;;;;;;;5066900;28;20048;-68
2021/03/06 02:56:30;;;;;;;18.08;4.43;;;;;;;;;;5066998;28;20527;-68
2021/03/06 02:59:17;;;;;;;18.17;4.60;;;;;;;;;;5069743;28;20131;-68
2021/03/06 03:02:02;;;;;;;17.73;4.70;;;;;;;;;;5067409;28;20044;-68
2021/03/06 03:04:47;;;;;;;18.83;4.78;;;;;;;;;;5065048;28;20044;-68
2021/03/06 03:07:16;;;;;;;30.10;6.53;;;;;;;;;;5064853;28;20052;-68
2021/03/06 03:09:44;;;;;;;23.67;4.65;;;;;;;;;;5067421;28;20047;-68
2021/03/06 03:12:16;;;;;;;27.95;5.28;;;;;;;;;;5066776;28;20102;-68
2021/03/06 03:14:51;;;;;;;18.30;5.43;;;;;;;;;;5064956;28;20048;-68
2021/03/06 03:17:24;;;;;;;25.15;5.40;;;;;;;;;;5067558;28;20105;-68
2021/03/06 03:20:03;;;;;;;20.00;6.32;;;;;;;;;;5067529;28;20041;-68
2021/03/06 03:22:29;;;;;;;;;;;;;;;;;;5073158;28;20048;-68
2021/03/06 03:24:58;;;;;;;25.92;5.75;;;;;;;;;;5071257;28;20386;-68
2021/03/06 03:27:25;;;;;;;26.15;7.00;;;;;;;;;;5068922;28;20139;-68
2021/03/06 03:29:51;;;;;;;27.77;5.43;;;;;;;;;;5070526;28;20059;-68
2021/03/06 03:32:18;;;;;;;26.27;6.07;;;;;;;;;;5068749;28;20049;-68
2021/03/06 03:34:45;;;;;;;30.67;6.50;;;;;;;;;;5070869;28;20040;-68
2021/03/06 03:37:11;;;;;;;33.75;6.80;;;;;;;;;;5070062;28;20033;-68
2021/03/06 03:39:38;;;;;;;18.50;5.15;;;;;;;;;;5067948;28;20032;-68
2021/03/06 03:42:05;;;;;;;27.27;6.70;;;;;;;;;;5071215;28;20688;-68
2021/03/06 03:44:33;;;;;;;26.48;6.35;;;;;;;;;;5066569;28;20044;-68
2021/03/06 03:46:59;;;;;;;31.23;6.57;;;;;;;;;;5069354;28;20036;-68
2021/03/06 03:49:26;;;;;;;30.27;7.68;;;;;;;;;;5068340;28;20040;-68
2021/03/06 03:51:53;;;;;;;25.77;5.63;;;;;;;;;;5069774;28;20047;-69
2021/03/06 03:54:19;;;;;;;35.60;7.25;;;;;;;;;;5070383;28;20419;-68
2021/03/06 03:56:45;;;;;;;25.08;7.57;;;;;;;;;;5070189;28;20127;-69
2021/03/06 03:59:12;;;;;;;28.17;7.13;;;;;;;;;;5068952;28;20409;-68
2021/03/06 04:01:41;;;;;;;42.97;9.27;;;;;;;;;;5068791;28;20072;-68
2021/03/06 04:04:09;;;;;;;31.60;8.57;;;;;;;;;;5066893;28;20041;-68
2021/03/06 04:06:35;;;;;;;;;;;;;;;;;;5068332;28;20048;-68
2021/03/06 04:09:02;;;;;;;24.50;6.85;;;;;;;;;;5070378;28;19924;-68
2021/03/06 04:11:28;;;;;;;45.97;10.05;;;;;;;;;;5068969;28;20062;-69
2021/03/06 04:13:54;;;;;;;40.85;9.48;;;;;;;;;;5071248;28;20127;-69
2021/03/06 04:16:21;;;;;;;38.63;9.10;;;;;;;;;;5069707;28;20105;-68
2021/03/06 04:18:47;;;;;;;33.20;8.07;;;;;;;;;;5069632;28;20044;-69
2021/03/06 04:21:13;;;;;;;34.75;9.32;;;;;;;;;;5069698;28;20066;-69
2021/03/06 04:23:39;;;;;;;41.03;10.27;;;;;;;;;;5066936;28;20523;-68
2021/03/06 04:26:05;;;;;;;38.35;10.90;;;;;;;;;;5068201;28;20059;-68
2021/03/06 04:28:32;;;;;;;40.47;10.77;;;;;;;;;;5069051;28;20040;-68
2021/03/06 04:30:58;;;;;;;54.00;11.25;;;;;;;;;;5069681;28;20049;-68
2021/03/06 04:33:24;;;;;;;39.80;11.40;;;;;;;;;;5068414;28;20239;-68
2021/03/06 04:35:52;;;;;;;45.15;11.85;;;;;;;;;;5069402;28;20120;-68
2021/03/06 04:38:18;;;;;;;43.72;12.35;;;;;;;;;;5066417;28;20098;-68
2021/03/06 04:40:44;;;;;;;51.67;11.73;;;;;;;;;;5070065;28;20043;-68
2021/03/06 04:43:10;;;;;;;47.75;11.55;;;;;;;;;;5071092;28;20097;-69
2021/03/06 04:45:36;;;;;;;46.67;12.07;;;;;;;;;;5070352;28;20415;-68
2021/03/06 04:48:04;;;;;;;42.95;12.07;;;;;;;;;;5067948;28;20579;-68
2021/03/06 04:50:30;;;;;;;;;;;;;;;;;;5070134;28;20496;-68
2021/03/06 04:52:56;;;;;;;46.92;12.05;;;;;;;;;;5070399;28;20015;-68
2021/03/06 04:55:25;;;;;;;40.30;10.37;;;;;;;;;;5067891;28;20045;-68
2021/03/06 04:57:51;;;;;;;50.05;11.18;;;;;;;;;;5067628;28;20059;-69
2021/03/06 05:00:18;;;;;;;44.25;10.90;;;;;;;;;;5068845;28;20055;-68
2021/03/06 05:02:45;;;;;;;39.63;10.23;;;;;;;;;;5068699;28;20060;-69
2021/03/06 05:05:11;;;;;;;36.92;10.55;;;;;;;;;;5066144;28;20040;-68
2021/03/06 05:07:37;;;;;;;30.37;8.70;;;;;;;;;;5066664;28;20047;-68
2021/03/06 05:10:04;;;;;;;48.13;10.48;;;;;;;;;;5068735;28;20294;-68
2021/03/06 05:12:30;;;;;;;33.05;9.02;;;;;;;;;;5069439;28;20044;-68
2021/03/06 05:14:56;;;;;;;39.28;10.60;;;;;;;;;;5070087;28;20052;-69
2021/03/06 05:17:23;;;;;;;40.83;11.20;;;;;;;;;;5067423;28;20060;-68
2021/03/06 05:19:49;;;;;;;37.15;10.45;;;;;;;;;;5068667;28;20403;-68
2021/03/06 05:22:15;;;;;;;52.22;11.57;;;;;;;;;;5067781;28;20105;-68
2021/03/06 05:24:41;;;;;;;50.60;11.88;;;;;;;;;;5068730;28;20037;-69
2021/03/06 05:27:27;;;;;;;56.45;11.88;;;;;;;;;;5067911;28;20070;-68
2021/03/06 05:29:54;;;;;;;49.60;11.55;;;;;;;;;;5068143;28;20063;-68
2021/03/06 05:32:20;;;;;;;41.67;11.40;;;;;;;;;;5076797;28;20056;-68
2021/03/06 05:34:46;;;;;;;49.60;12.43;;;;;;;;;;5068875;28;20360;-69
2021/03/06 05:37:13;;;;;;;50.97;12.55;;;;;;;;;;5067050;28;20137;-68
2021/03/06 05:39:39;;;;;;;62.30;12.73;;;;;;;;;;5069118;28;20051;-69
2021/03/06 05:42:08;;;;;;;46.20;12.53;;;;;;;;;;5067147;28;20041;-68
2021/03/06 05:44:35;;;;;;;56.80;12.07;;;;;;;;;;5066881;28;20036;-68
2021/03/06 05:47:02;;;;;;;55.03;12.82;;;;;;;;;;5066860;28;20102;-69
2021/03/06 05:49:29;;;;;;;40.22;8.68;;;;;;;;;;5067106;28;20119;-69
2021/03/06 05:51:56;;;;;;;58.58;13.25;;;;;;;;;;5068084;28;20044;-69
2021/03/06 05:54:25;;;;;;;37.58;8.73;;;;;;;;;;5068193;28;20054;-68
2021/03/06 05:56:52;;;;;;;46.90;12.52;;;;;;;;;;5067940;28;20048;-68
2021/03/06 05:59:18;;;;;;;46.72;12.07;;;;;;;;;;5068832;28;20095;-68
2021/03/06 06:01:45;;;;;;;44.15;11.18;;;;;;;;;;5066026;28;20056;-68
2021/03/06 06:04:11;;;;;;;37.10;11.23;;;;;;;;;;5063214;28;20039;-68
2021/03/06 06:06:38;;;;;;;48.67;12.23;;;;;;;;;;5066510;28;20052;-68
2021/03/06 06:09:05;;;;;;;45.13;11.47;;;;;;;;;;5062690;28;20475;-68
2021/03/06 06:11:32;;;;;;;49.45;11.43;;;;;;;;;;5067188;28;20290;-68
2021/03/06 06:13:58;;;;;;;50.42;8.23;;;;;;;;;;5067281;28;20055;-68
2021/03/06 06:16:28;;;;;;;36.30;10.07;;;;;;;;;;5068338;28;20056;-69
2021/03/06 06:18:55;;;;;;;46.20;10.07;;;;;;;;;;5067116;28;20365;-69
2021/03/06 06:21:37;;;;;;;29.02;8.20;;;;;;;;;;5067299;28;20055;-69
2021/03/06 06:24:07;;;;;;;47.13;10.23;;;;;;;;;;5069162;28;20076;-69
2021/03/06 06:26:34;;;;;;;44.53;11.05;;;;;;;;;;5069440;28;20408;-69
2021/03/06 06:29:01;;;;;;;48.38;10.38;;;;;;;;;;5067574;28;20044;-68
2021/03/06 06:31:27;;;;;;;38.13;10.55;;;;;;;;;;5068065;28;20052;-68
2021/03/06 06:33:54;;;;;;;40.85;9.95;;;;;;;;;;5067546;28;20094;-68
2021/03/06 06:36:38;;;;;;;41.45;10.75;;;;;;;;;;5066934;28;20198;-68
2021/03/06 06:39:05;;;;;;;42.90;10.25;;;;;;;;;;5069024;28;20064;-69
2021/03/06 06:41:50;;;;;;;30.98;9.60;;;;;;;;;;5068167;28;20051;-69
2021/03/06 06:44:17;;;;;;;38.70;9.85;;;;;;;;;;5063897;28;20079;-68
2021/03/06 06:46:43;;;;;;;35.78;10.32;;;;;;;;;;5067210;28;20051;-68
2021/03/06 06:49:10;;;;;;;41.87;9.57;;;;;;;;;;5064394;28;20037;-68
2021/03/06 06:51:37;;;;;;;45.17;9.65;;;;;;;;;;5067364;28;20287;-68
2021/03/06 06:54:13;;;;;;;50.88;10.98;;;;;;;;;;5067932;28;20040;-68
2021/03/06 06:56:40;;;;;;;43.33;9.68;;;;;;;;;;5078274;28;20047;-69
2021/03/06 06:59:08;;;;;;;37.97;10.07;;;;;;;;;;5071390;28;20147;-68
2021/03/06 07:01:36;;;;;;;44.13;11.63;;;;;;;;;;5069223;28;20056;-68
2021/03/06 07:04:03;;;;;;;44.58;10.98;;;;;;;;;;5067150;28;20045;-68
2021/03/06 07:06:29;;;;;;;39.17;9.82;;;;;;;;;;5070183;28;20044;-68
2021/03/06 07:09:15;;;;;;;41.65;10.32;;;;;;;;;;5067956;28;20036;-68
2021/03/06 07:11:43;;;;;;;42.22;10.45;;;;;;;;;;5068319;28;20070;-68
2021/03/06 07:14:09;;;;;;;33.38;9.95;;;;;;;;;;5066860;28;20045;-68
2021/03/06 07:16:55;;;;;;;51.80;10.60;;;;;;;;;;5066585;28;20507;-69
2021/03/06 07:19:23;;;;;;;43.05;9.40;;;;;;;;;;5066780;28;20062;-68
2021/03/06 07:21:49;;;;;;;23.67;6.82;;;;;;;;;;5069469;28;20484;-68
2021/03/06 07:24:16;;;;;;;30.92;9.07;;;;;;;;;;5067682;28;20052;-68
2021/03/06 07:26:42;;;;;;;50.85;9.95;;;;;;;;;;5067797;28;20399;-68
2021/03/06 07:29:08;;;;;;;39.67;9.45;;;;;;;;;;5066293;28;20044;-67
2021/03/06 07:31:36;;;;;;;47.33;10.45;;;;;;;;;;5068685;28;20118;-68
2021/03/06 07:34:03;;;;;;;39.25;8.15;;;;;;;;;;5069605;28;20044;-68
2021/03/06 07:36:30;;;;;;;40.88;9.45;;;;;;;;;;5069548;28;20036;-68
2021/03/06 07:38:59;;;;;;;41.70;9.43;;;;;;;;;;5070061;28;20587;-68
2021/03/06 07:41:26;;;;;;;35.38;9.40;;;;;;;;;;5069331;28;20039;-68
2021/03/06 07:43:53;;;;;;;19.73;6.53;;;;;;;;;;5072279;28;20048;-68
2021/03/06 07:46:19;;;;;;;38.65;9.15;;;;;;;;;;5067920;28;20032;-68
2021/03/06 07:48:51;;;;;;;33.50;8.27;;;;;;;;;;5071402;28;20076;-68
2021/03/06 07:51:18;;;;;;;32.72;7.88;;;;;;;;;;5070770;28;20032;-68
2021/03/06 07:53:45;;;;;;;40.40;7.45;;;;;;;;;;5066736;28;20044;-69
2021/03/06 07:56:11;;;;;;;31.65;6.90;;;;;;;;;;5072146;28;20062;-68
2021/03/06 07:58:48;;;;;;;32.33;7.20;;;;;;;;;;5069335;28;20039;-68
2021/03/06 08:01:24;;;;;;;36.58;6.05;;;;;;;;;;5070837;28;20051;-68
2021/03/06 08:03:52;;;;;;;25.27;4.68;;;;;;;;;;5067067;28;20076;-68
2021/03/06 08:06:19;;;;;;;28.65;3.83;;;;;;;;;;5065816;28;20126;-68
2021/03/06 08:08:47;;;;;;;22.80;3.08;;;;;;;;;;5069539;28;20488;-68
2021/03/06 08:11:18;;;;;;;19.25;2.42;;;;;;;;;;5070706;28;20043;-68
2021/03/06 08:13:48;;;;;;;10.18;2.03;;;;;;;;;;5066589;28;20053;-69
2021/03/06 08:16:24;;;;;;;16.20;2.42;;;;;;;;;;5069855;28;20127;-69
2021/03/06 08:18:55;;;;;;;12.27;2.85;;;;;;;;;;5069557;28;20533;-69
2021/03/06 08:21:31;;;;;;;19.65;3.00;;;;;;;;;;5068044;28;20037;-69
2021/03/06 08:24:14;;;;;;;19.77;2.10;;;;;;;;;;5068447;28;20094;-69
2021/03/06 08:26:51;;;;;;;20.65;3.42;;;;;;;;;;5066319;28;20444;-69
2021/03/06 08:29:21;;;;;;;13.87;2.27;;;;;;;;;;5068083;28;20556;-69
2021/03/06 08:31:58;;;;;;;15.27;2.50;;;;;;;;;;5065793;28;20429;-69
2021/03/06 08:34:33;;;;;;;18.20;2.60;;;;;;;;;;5068890;28;20118;-69
2021/03/06 08:37:20;;;;;;;19.95;1.85;;;;;;;;;;5067990;28;20052;-70
2021/03/06 08:39:54;;;;;;;9.20;2.10;;;;;;;;;;5067281;28;20094;-68
2021/03/06 08:42:26;;;;;;;14.40;2.40;;;;;;;;;;5067585;28;20041;-68
2021/03/06 08:44:54;;;;;;;10.65;2.15;;;;;;;;;;5068677;28;20041;-68
2021/03/06 08:47:29;;;;;;;16.42;2.10;;;;;;;;;;5068148;28;20049;-68
2021/03/06 08:49:57;;;;;;;13.88;2.40;;;;;;;;;;5066590;28;20051;-68
2021/03/06 08:52:24;;;;;;;10.20;2.20;;;;;;;;;;5068210;28;20041;-68
2021/03/06 08:54:51;;;;;;;16.33;2.10;;;;;;;;;;5067776;28;20094;-68
2021/03/06 08:57:21;;;;;;;11.37;2.13;;;;;;;;;;5065827;28;20032;-69
2021/03/06 09:00:18;;;;;;;15.25;3.00;;;;;;;;;;5068143;28;20140;-68
2021/03/06 09:02:45;;;;;;;9.98;1.83;;;;;;;;;;5069232;28;20419;-69
2021/03/06 09:05:15;;;;;;;19.90;2.63;;;;;;;;;;5066070;28;20039;-68
2021/03/06 09:07:44;;;;;;;13.73;2.05;;;;;;;;;;5062739;28;20593;-69
2021/03/06 09:10:29;;;;;;;11.30;1.90;;;;;;;;;;5069169;28;20052;-69
2021/03/06 09:13:06;;;;;;;15.32;2.50;;;;;;;;;;5070712;28;20492;-69
2021/03/06 09:15:42;;;;;;;11.32;1.73;;;;;;;;;;5065862;28;20041;-69
2021/03/06 09:18:10;;;;;;;14.63;2.15;;;;;;;;;;5067230;28;20110;-69
2021/03/06 09:20:38;;;;;;;16.52;2.10;;;;;;;;;;5068905;28;20404;-69
2021/03/06 09:23:04;;;;;;;11.80;1.85;;;;;;;;;;5066331;28;20041;-69
2021/03/06 09:25:38;;;;;;;7.75;1.80;;;;;;;;;;5066745;28;20037;-69
2021/03/06 09:28:06;;;;;;;11.68;1.83;;;;;;;;;;5067394;28;20061;-69
2021/03/06 09:30:34;;;;;;;13.57;1.70;;;;;;;;;;5067479;28;20091;-69
2021/03/06 09:33:01;;;;;;;8.52;2.10;;;;;;;;;;5065920;28;20135;-69
2021/03/06 09:35:28;;;;;;;8.48;2.42;;;;;;;;;;5065833;28;20492;-70
2021/03/06 09:38:04;;;;;;;10.80;2.05;;;;;;;;;;5060633;28;20037;-69
2021/03/06 09:40:35;;;;;;;7.88;1.85;;;;;;;;;;5059996;28;20641;-70
2021/03/06 09:43:27;;;;;;;5.93;1.40;;;;;;;;;;5066236;28;20559;-69
2021/03/06 09:45:54;;;;;;;12.82;1.98;;;;;;;;;;5064618;28;20496;-70
2021/03/06 09:48:20;;;;;;;9.27;1.50;;;;;;;;;;5069214;28;20131;-69
2021/03/06 09:50:46;;;;;;;9.83;1.80;;;;;;;;;;5068170;28;20113;-69
2021/03/06 09:53:18;;;;;;;6.73;1.40;;;;;;;;;;5067225;28;20055;-69
2021/03/06 09:55:44;;;;;;;6.32;1.55;;;;;;;;;;5066294;28;20669;-70
2021/03/06 09:58:28;;;;;;;11.13;1.98;;;;;;;;;;5066649;28;20592;-69
2021/03/06 10:01:09;;;;;;;10.80;1.65;;;;;;;;;;5068202;28;20051;-69
2021/03/06 10:03:35;;;;;;;8.93;1.40;;;;;;;;;;5066849;28;20045;-69
2021/03/06 10:06:04;;;;;;;14.68;1.75;;;;;;;;;;5067512;28;20048;-69
2021/03/06 10:08:31;;;;;;;4.72;1.10;;;;;;;;;;5068831;28;20040;-70
2021/03/06 10:10:58;;;;;;;10.15;2.33;;;;;;;;;;5067082;28;20036;-70
2021/03/06 10:13:24;;;;;;;7.05;1.63;;;;;;;;;;5068311;28;20050;-70
2021/03/06 10:15:52;;;;;;;6.85;1.35;;;;;;;;;;5065787;28;20097;-71
2021/03/06 10:18:18;;;;;;;5.68;1.40;;;;;;;;;;5065424;28;20055;-70
2021/03/06 10:20:47;;;;;;;4.38;1.08;;;;;;;;;;5066656;28;20048;-70
2021/03/06 10:23:33;;;;;;;7.22;1.40;;;;;;;;;;5065426;28;20050;-70
2021/03/06 10:26:12;;;;;;;6.95;1.65;;;;;;;;;;5066382;28;20046;-70
2021/03/06 10:28:38;;;;;;;;;;;;;;;;;;5068650;28;20397;-71
2021/03/06 10:31:23;;;;;;;9.43;1.52;;;;;;;;;;5066443;28;19921;-70
2021/03/06 10:33:49;;;;;;;4.13;1.30;;;;;;;;;;5064888;28;20033;-71
2021/03/06 10:36:16;;;;;;;4.28;1.58;;;;;;;;;;5067032;28;20120;-71
2021/03/06 10:38:42;;;;;;;4.25;0.85;;;;;;;;;;5068538;28;20088;-70
2021/03/06 10:41:15;;;;;;;7.25;1.00;;;;;;;;;;5063915;28;20106;-70
2021/03/06 10:43:43;;;;;;;5.35;1.00;;;;;;;;;;5064995;28;20446;-70
2021/03/06 10:46:24;;;;;;;3.13;1.15;;;;;;;;;;5066230;28;20570;-71
2021/03/06 10:48:52;;;;;;;5.20;1.65;;;;;;;;;;5065478;28;20174;-72
2021/03/06 10:51:18;;;;;;;3.35;1.10;;;;;;;;;;5068146;28;20068;-71
2021/03/06 10:53:58;;;;;;;6.07;1.88;;;;;;;;;;5064894;28;20060;-71
2021/03/06 10:56:24;;;;;;;7.55;1.63;;;;;;;;;;5064371;28;20028;-70
2021/03/06 10:58:50;;;;;;;3.85;1.13;;;;;;;;;;5066826;28;20392;-70
2021/03/06 11:01:33;;;;;;;14.77;2.88;;;;;;;;;;5065999;28;20448;-70
2021/03/06 11:04:00;;;;;;;10.15;2.10;;;;;;;;;;5067292;28;20102;-71
2021/03/06 11:06:26;;;;;;;6.85;2.05;;;;;;;;;;5066015;28;20050;-70
2021/03/06 11:08:59;;;;;;;5.00;1.52;;;;;;;;;;5067212;28;20444;-70
2021/03/06 11:11:46;;;;;;;11.55;1.92;;;;;;;;;;5064161;28;20101;-71
2021/03/06 11:14:22;;;;;;;9.30;1.33;;;;;;;;;;5064150;28;20044;-71
2021/03/06 11:16:48;;;;;;;3.05;1.13;;;;;;;;;;5065834;28;20090;-70
2021/03/06 11:19:15;;;;;;;4.15;1.70;;;;;;;;;;5066639;28;20488;-70
2021/03/06 11:21:41;;;;;;;6.50;1.40;;;;;;;;;;5066560;28;20135;-70
2021/03/06 11:24:08;;;;;;;4.97;1.80;;;;;;;;;;5066342;28;20051;-70
2021/03/06 11:26:35;;;;;;;4.57;1.45;;;;;;;;;;5064932;28;20048;-71
2021/03/06 11:29:01;;;;;;;6.63;1.48;;;;;;;;;;5065305;28;20041;-70
2021/03/06 11:31:37;;;;;;;4.63;1.17;;;;;;;;;;5064838;28;20087;-70
2021/03/06 11:34:04;;;;;;;8.27;1.73;;;;;;;;;;5068048;28;20484;-70
2021/03/06 11:36:30;;;;;;;8.85;2.60;;;;;;;;;;5065267;28;20520;-71
2021/03/06 11:38:57;;;;;;;6.75;1.50;;;;;;;;;;5066195;28;20057;-71
2021/03/06 11:41:23;;;;;;;3.80;1.10;;;;;;;;;;5066629;28;20055;-71
2021/03/06 11:43:49;;;;;;;5.60;1.92;;;;;;;;;;5071306;28;20399;-70
2021/03/06 11:46:15;;;;;;;6.78;1.50;;;;;;;;;;5069381;28;20044;-70
2021/03/06 11:48:42;;;;;;;6.78;1.70;;;;;;;;;;5070492;28;20122;-70
2021/03/06 11:51:09;;;;;;;6.27;1.20;;;;;;;;;;5068686;28;20499;-70
2021/03/06 11:53:35;;;;;;;7.47;1.38;;;;;;;;;;5068563;28;20053;-71
2021/03/06 11:56:01;;;;;;;6.28;1.35;;;;;;;;;;5069722;28;20045;-70
2021/03/06 11:58:27;;;;;;;7.45;1.23;;;;;;;;;;5068247;28;20036;-71
2021/03/06 12:00:54;;;;;;;9.75;1.50;;;;;;;;;;5070785;28;20106;-70
2021/03/06 12:03:21;;;;;;;6.50;1.42;;;;;;;;;;5071455;28;20048;-71
2021/03/06 12:05:47;;;;;;;7.35;1.85;;;;;;;;;;5070833;28;20145;-70
2021/03/06 12:08:13;;;;;;;11.13;1.75;;;;;;;;;;5067960;28;20403;-70
2021/03/06 12:10:39;;;;;;;7.45;1.65;;;;;;;;;;5069816;28;20149;-71
2021/03/06 12:13:06;;;;;;;12.50;2.17;;;;;;;;;;5068572;28;20500;-71
2021/03/06 12:15:32;;;;;;;11.82;2.40;;;;;;;;;;5066329;28;20040;-71
2021/03/06 12:17:58;;;;;;;6.20;1.88;;;;;;;;;;5071667;28;20044;-70
2021/03/06 12:20:24;;;;;;;9.80;2.25;;;;;;;;;;5071250;28;20098;-70
2021/03/06 12:22:50;;;;;;;9.27;2.22;;;;;;;;;;5068551;28;20080;-70
2021/03/06 12:25:17;;;;;;;13.10;3.08;;;;;;;;;;5070028;28;20659;-70
2021/03/06 12:27:43;;;;;;;18.08;2.45;;;;;;;;;;5071858;28;20037;-70
2021/03/06 12:30:13;;;;;;;13.77;2.20;;;;;;;;;;5068642;28;20106;-70
2021/03/06 12:32:40;;;;;;;10.63;2.10;;;;;;;;;;5070597;28;20052;-70
2021/03/06 12:35:08;;;;;;;15.93;2.40;;;;;;;;;;5072391;28;20044;-70
2021/03/06 12:37:34;;;;;;;16.35;2.30;;;;;;;;;;5071227;28;20439;-70
2021/03/06 12:40:01;;;;;;;17.37;2.87;;;;;;;;;;5067234;28;20044;-70
2021/03/06 12:42:27;;;;;;;10.60;2.08;;;;;;;;;;5069983;28;20302;-70
2021/03/06 12:44:53;;;;;;;14.02;2.63;;;;;;;;;;5068025;28;20036;-70
2021/03/06 12:47:20;;;;;;;15.55;3.05;;;;;;;;;;5063744;28;20113;-70
2021/03/06 12:49:46;;;;;;;12.43;2.30;;;;;;;;;;5066497;28;20045;-70
2021/03/06 12:52:13;;;;;;;8.80;1.98;;;;;;;;;;5066596;28;20973;-70
2021/03/06 12:54:39;;;;;;;14.50;2.72;;;;;;;;;;5066842;28;20090;-70
2021/03/06 12:57:05;;;;;;;13.82;2.55;;;;;;;;;;5065181;28;20807;-70
2021/03/06 12:59:31;;;;;;;14.05;2.85;;;;;;;;;;5064426;28;20534;-70
2021/03/06 13:01:57;;;;;;;15.60;2.70;;;;;;;;;;5068895;28;20036;-70
2021/03/06 13:04:24;;;;;;;15.23;2.10;;;;;;;;;;5065531;28;20064;-70
2021/03/06 13:06:52;;;;;;;15.80;2.63;;;;;;;;;;5065729;28;20557;-70
2021/03/06 13:09:18;;;;;;;13.60;2.97;;;;;;;;;;5064698;28;20051;-70
2021/03/06 13:11:44;;;;;;;11.10;2.33;;;;;;;;;;5069036;28;20037;-70
2021/03/06 13:14:10;;;;;;;5.15;1.65;;;;;;;;;;5067437;28;20139;-70
2021/03/06 13:16:36;;;;;;;7.00;2.08;;;;;;;;;;5065907;28;20024;-70
2021/03/06 13:19:03;;;;;;;5.45;1.27;;;;;;;;;;5064625;28;20032;-70
2021/03/06 13:21:29;;;;;;;7.90;1.60;;;;;;;;;;5068329;28;20044;-70
2021/03/06 13:23:55;;;;;;;10.38;3.47;;;;;;;;;;5068078;28;20037;-70
2021/03/06 13:26:23;;;;;;;3.72;1.20;;;;;;;;;;5068937;28;20109;-70
2021/03/06 13:28:50;;;;;;;8.50;2.00;;;;;;;;;;5068282;28;20044;-70
2021/03/06 13:31:16;;;;;;;8.43;1.30;;;;;;;;;;5066453;28;20105;-70
2021/03/06 13:33:43;;;;;;;5.97;1.67;;;;;;;;;;5068216;28;20052;-70
2021/03/06 13:36:09;;;;;;;4.57;1.38;;;;;;;;;;5068667;28;20059;-70
2021/03/06 13:38:35;;;;;;;9.25;1.70;;;;;;;;;;5067275;28;20045;-70
2021/03/06 13:41:02;;;;;;;7.80;1.63;;;;;;;;;;5067525;28;20058;-70
2021/03/06 13:43:29;;;;;;;4.15;1.33;;;;;;;;;;5069467;28;20044;-70
2021/03/06 13:45:55;;;;;;;8.65;2.05;;;;;;;;;;5066856;28;20055;-70
2021/03/06 13:48:21;;;;;;;6.20;1.48;;;;;;;;;;5065760;28;20040;-70
2021/03/06 13:51:03;;;;;;;7.60;1.65;;;;;;;;;;5066844;28;20094;-70
2021/03/06 13:53:30;;;;;;;3.45;1.40;;;;;;;;;;5067962;28;20032;-70
2021/03/06 13:55:57;;;;;;;8.82;1.45;;;;;;;;;;5066234;28;20041;-69
2021/03/06 13:58:24;;;;;;;4.07;1.10;;;;;;;;;;5065230;28;20052;-70
2021/03/06 14:00:50;;;;;;;6.38;1.20;;;;;;;;;;5067158;28;20662;-69
2021/03/06 14:03:36;;;;;;;6.90;1.88;;;;;;;;;;5066349;28;20044;-70
2021/03/06 14:06:03;;;;;;;3.25;1.05;;;;;;;;;;5066114;28;20063;-70
2021/03/06 14:08:29;;;;;;;6.45;1.20;;;;;;;;;;5068441;28;20051;-69
2021/03/06 14:10:55;;;;;;;2.80;1.08;;;;;;;;;;5061965;28;20049;-70
2021/03/06 14:13:23;;;;;;;5.22;1.38;;;;;;;;;;5058847;28;20055;-70
2021/03/06 14:15:49;;;;;;;5.20;1.02;;;;;;;;;;5065996;28;20041;-70
2021/03/06 14:18:16;;;;;;;7.55;1.10;;;;;;;;;;5066375;28;20040;-69
2021/03/06 14:20:43;;;;;;;5.32;1.30;;;;;;;;;;5068434;28;20055;-69
2021/03/06 14:23:09;;;;;;;6.45;1.20;;;;;;;;;;5065751;28;20041;-69
2021/03/06 14:25:35;;;;;;;4.30;1.42;;;;;;;;;;5066861;28;20153;-70
2021/03/06 14:28:01;;;;;;;6.40;1.40;;;;;;;;;;5068050;28;20622;-69
2021/03/06 14:30:28;;;;;;;7.70;1.40;;;;;;;;;;5067258;28;20053;-69
2021/03/06 14:32:54;;;;;;;7.00;1.35;;;;;;;;;;5069113;28;20051;-70
2021/03/06 14:35:21;;;;;;;3.42;1.05;;;;;;;;;;5068314;28;20126;-70
2021/03/06 14:37:47;;;;;;;4.30;1.25;;;;;;;;;;5065673;28;20058;-70
2021/03/06 14:40:13;;;;;;;9.27;1.58;;;;;;;;;;5066848;28;20136;-70
2021/03/06 14:42:39;;;;;;;4.60;1.25;;;;;;;;;;5068013;28;20040;-70